sensor_id;sensor_type;location;lat;lon;timestamp;P1;durP1;ratioP1;P2;durP2;ratioP2
691;SDS011;328;50.086;8.576;2022-11-04T00:00:44;7.40;;;6.50;;
691;SDS011;328;50.086;8.576;2022-11-04T00:03:12;8.60;;;6.10;;
691;SDS011;328;50.086;8.576;2022-11-04T00:05:39;8.50;;;5.57;;
691;SDS011;328;50.086;8.576;2022-11-04T00:08:07;8.50;;;5.60;;
691;SDS011;328;50.086;8.576;2022-11-04T00:10:53;8.87;;;6.37;;
691;SDS011;328;50.086;8.576;2022-11-04T00:13:35;6.30;;;5.10;;
691;SDS011;328;50.086;8.576;2022-11-04T00:16:03;8.47;;;4.83;;
691;SDS011;328;50.086;8.576;2022-11-04T00:18:48;5.20;;;3.90;;
691;SDS011;328;50.086;8.576;2022-11-04T00:21:16;6.20;;;4.27;;
691;SDS011;328;50.086;8.576;2022-11-04T00:24:01;5.93;;;4.20;;
691;SDS011;328;50.086;8.576;2022-11-04T00:26:48;7.80;;;5.50;;
691;SDS011;328;50.086;8.576;2022-11-04T00:29:33;6.17;;;4.47;;
691;SDS011;328;50.086;8.576;2022-11-04T00:32:01;4.80;;;4.30;;
691;SDS011;328;50.086;8.576;2022-11-04T00:34:46;5.13;;;3.87;;
691;SDS011;328;50.086;8.576;2022-11-04T00:37:14;4.20;;;3.80;;
691;SDS011;328;50.086;8.576;2022-11-04T00:39:41;6.47;;;4.90;;
691;SDS011;328;50.086;8.576;2022-11-04T00:42:10;6.00;;;5.00;;
691;SDS011;328;50.086;8.576;2022-11-04T00:44:38;4.90;;;3.80;;
691;SDS011;328;50.086;8.576;2022-11-04T00:47:05;6.40;;;3.90;;
691;SDS011;328;50.086;8.576;2022-11-04T00:49:33;6.77;;;4.30;;
691;SDS011;328;50.086;8.576;2022-11-04T00:52:00;6.80;;;4.33;;
691;SDS011;328;50.086;8.576;2022-11-04T00:54:28;5.20;;;3.83;;
691;SDS011;328;50.086;8.576;2022-11-04T00:56:55;6.17;;;4.43;;
691;SDS011;328;50.086;8.576;2022-11-04T00:59:24;8.40;;;4.00;;
691;SDS011;328;50.086;8.576;2022-11-04T01:01:52;4.33;;;3.37;;
691;SDS011;328;50.086;8.576;2022-11-04T01:04:19;4.90;;;3.70;;
691;SDS011;328;50.086;8.576;2022-11-04T01:06:47;4.70;;;3.37;;
691;SDS011;328;50.086;8.576;2022-11-04T01:09:14;3.83;;;3.43;;
691;SDS011;328;50.086;8.576;2022-11-04T01:11:42;5.63;;;4.20;;
691;SDS011;328;50.086;8.576;2022-11-04T01:14:10;4.43;;;4.00;;
691;SDS011;328;50.086;8.576;2022-11-04T01:16:39;6.47;;;4.10;;
691;SDS011;328;50.086;8.576;2022-11-04T01:19:07;4.90;;;3.43;;
691;SDS011;328;50.086;8.576;2022-11-04T01:21:34;5.37;;;4.13;;
691;SDS011;328;50.086;8.576;2022-11-04T01:24:02;4.13;;;3.13;;
691;SDS011;328;50.086;8.576;2022-11-04T01:26:30;3.60;;;3.30;;
691;SDS011;328;50.086;8.576;2022-11-04T01:28:57;3.43;;;3.10;;
691;SDS011;328;50.086;8.576;2022-11-04T01:31:26;5.03;;;3.10;;
691;SDS011;328;50.086;8.576;2022-11-04T01:33:57;6.30;;;3.07;;
691;SDS011;328;50.086;8.576;2022-11-04T01:36:25;6.40;;;3.10;;
691;SDS011;328;50.086;8.576;2022-11-04T01:38:53;3.27;;;2.50;;
691;SDS011;328;50.086;8.576;2022-11-04T01:41:22;3.83;;;2.50;;
691;SDS011;328;50.086;8.576;2022-11-04T01:43:51;3.37;;;2.33;;
691;SDS011;328;50.086;8.576;2022-11-04T01:46:21;4.13;;;2.70;;
691;SDS011;328;50.086;8.576;2022-11-04T01:48:54;4.00;;;2.37;;
691;SDS011;328;50.086;8.576;2022-11-04T01:51:31;2.97;;;2.10;;
691;SDS011;328;50.086;8.576;2022-11-04T01:53:59;2.53;;;2.07;;
691;SDS011;328;50.086;8.576;2022-11-04T01:56:27;4.50;;;1.47;;
691;SDS011;328;50.086;8.576;2022-11-04T01:58:56;2.17;;;1.77;;
691;SDS011;328;50.086;8.576;2022-11-04T02:01:24;2.47;;;1.73;;
691;SDS011;328;50.086;8.576;2022-11-04T02:03:53;2.00;;;1.60;;
691;SDS011;328;50.086;8.576;2022-11-04T02:06:44;1.77;;;1.30;;
691;SDS011;328;50.086;8.576;2022-11-04T02:09:12;3.13;;;1.47;;
691;SDS011;328;50.086;8.576;2022-11-04T02:11:39;2.40;;;1.30;;
691;SDS011;328;50.086;8.576;2022-11-04T02:14:25;3.07;;;1.60;;
691;SDS011;328;50.086;8.576;2022-11-04T02:16:52;1.70;;;1.40;;
691;SDS011;328;50.086;8.576;2022-11-04T02:19:28;2.13;;;1.27;;
691;SDS011;328;50.086;8.576;2022-11-04T02:25:05;4.10;;;1.67;;
691;SDS011;328;50.086;8.576;2022-11-04T02:27:47;1.90;;;1.43;;
691;SDS011;328;50.086;8.576;2022-11-04T02:30:26;1.13;;;0.80;;
691;SDS011;328;50.086;8.576;2022-11-04T02:33:01;2.40;;;1.40;;
691;SDS011;328;50.086;8.576;2022-11-04T02:35:41;1.20;;;1.03;;
691;SDS011;328;50.086;8.576;2022-11-04T02:38:12;2.10;;;1.00;;
691;SDS011;328;50.086;8.576;2022-11-04T02:40:44;1.40;;;1.30;;
691;SDS011;328;50.086;8.576;2022-11-04T02:43:19;1.30;;;0.90;;
691;SDS011;328;50.086;8.576;2022-11-04T02:45:51;0.97;;;0.80;;
691;SDS011;328;50.086;8.576;2022-11-04T02:48:24;1.73;;;1.23;;
691;SDS011;328;50.086;8.576;2022-11-04T02:50:58;1.90;;;1.03;;
691;SDS011;328;50.086;8.576;2022-11-04T02:53:30;1.27;;;1.10;;
691;SDS011;328;50.086;8.576;2022-11-04T02:56:00;1.10;;;0.90;;
691;SDS011;328;50.086;8.576;2022-11-04T02:58:29;1.77;;;1.00;;
691;SDS011;328;50.086;8.576;2022-11-04T03:01:01;0.80;;;0.70;;
691;SDS011;328;50.086;8.576;2022-11-04T03:03:31;1.30;;;0.90;;
691;SDS011;328;50.086;8.576;2022-11-04T03:06:02;1.60;;;1.07;;
691;SDS011;328;50.086;8.576;2022-11-04T03:08:32;1.50;;;1.10;;
691;SDS011;328;50.086;8.576;2022-11-04T03:11:02;1.00;;;0.90;;
691;SDS011;328;50.086;8.576;2022-11-04T03:13:35;2.07;;;1.10;;
691;SDS011;328;50.086;8.576;2022-11-04T03:16:09;2.20;;;1.20;;
691;SDS011;328;50.086;8.576;2022-11-04T03:18:41;1.13;;;0.90;;
691;SDS011;328;50.086;8.576;2022-11-04T03:21:13;2.60;;;0.90;;
691;SDS011;328;50.086;8.576;2022-11-04T03:23:41;1.10;;;0.90;;
691;SDS011;328;50.086;8.576;2022-11-04T03:26:10;0.90;;;0.77;;
691;SDS011;328;50.086;8.576;2022-11-04T03:28:41;2.10;;;1.13;;
691;SDS011;328;50.086;8.576;2022-11-04T03:31:15;1.90;;;0.93;;
691;SDS011;328;50.086;8.576;2022-11-04T03:33:47;3.17;;;1.03;;
691;SDS011;328;50.086;8.576;2022-11-04T03:36:16;4.20;;;0.93;;
691;SDS011;328;50.086;8.576;2022-11-04T03:38:45;1.37;;;0.70;;
691;SDS011;328;50.086;8.576;2022-11-04T03:41:14;1.23;;;0.83;;
691;SDS011;328;50.086;8.576;2022-11-04T03:43:43;1.53;;;0.80;;
691;SDS011;328;50.086;8.576;2022-11-04T03:46:11;9.33;;;0.93;;
691;SDS011;328;50.086;8.576;2022-11-04T03:48:40;1.73;;;0.70;;
691;SDS011;328;50.086;8.576;2022-11-04T03:51:10;1.30;;;0.80;;
691;SDS011;328;50.086;8.576;2022-11-04T03:53:37;1.60;;;0.90;;
691;SDS011;328;50.086;8.576;2022-11-04T03:56:11;2.27;;;0.90;;
691;SDS011;328;50.086;8.576;2022-11-04T03:58:48;1.43;;;0.80;;
691;SDS011;328;50.086;8.576;2022-11-04T04:01:24;2.70;;;0.70;;
691;SDS011;328;50.086;8.576;2022-11-04T04:03:58;10.00;;;1.40;;
691;SDS011;328;50.086;8.576;2022-11-04T04:06:28;2.23;;;0.80;;
691;SDS011;328;50.086;8.576;2022-11-04T04:09:00;3.93;;;0.70;;
691;SDS011;328;50.086;8.576;2022-11-04T04:11:33;1.20;;;1.00;;
691;SDS011;328;50.086;8.576;2022-11-04T04:14:04;1.00;;;0.60;;
691;SDS011;328;50.086;8.576;2022-11-04T04:16:33;5.00;;;0.90;;
691;SDS011;328;50.086;8.576;2022-11-04T04:19:06;2.60;;;1.50;;
691;SDS011;328;50.086;8.576;2022-11-04T04:21:36;1.10;;;0.87;;
691;SDS011;328;50.086;8.576;2022-11-04T04:24:07;1.00;;;0.77;;
691;SDS011;328;50.086;8.576;2022-11-04T04:26:54;1.73;;;0.90;;
691;SDS011;328;50.086;8.576;2022-11-04T04:29:40;0.90;;;0.70;;
691;SDS011;328;50.086;8.576;2022-11-04T04:32:09;1.33;;;0.70;;
691;SDS011;328;50.086;8.576;2022-11-04T04:34:39;1.23;;;0.70;;
691;SDS011;328;50.086;8.576;2022-11-04T04:37:07;1.93;;;0.90;;
691;SDS011;328;50.086;8.576;2022-11-04T04:39:37;0.90;;;0.67;;
691;SDS011;328;50.086;8.576;2022-11-04T04:42:24;1.30;;;0.80;;
691;SDS011;328;50.086;8.576;2022-11-04T04:45:10;1.10;;;0.70;;
691;SDS011;328;50.086;8.576;2022-11-04T04:47:46;1.27;;;0.80;;
691;SDS011;328;50.086;8.576;2022-11-04T04:50:15;2.40;;;0.80;;
691;SDS011;328;50.086;8.576;2022-11-04T04:52:44;1.70;;;0.87;;
691;SDS011;328;50.086;8.576;2022-11-04T04:55:14;2.87;;;1.07;;
691;SDS011;328;50.086;8.576;2022-11-04T04:57:42;1.80;;;1.20;;
691;SDS011;328;50.086;8.576;2022-11-04T05:00:11;1.90;;;1.27;;
691;SDS011;328;50.086;8.576;2022-11-04T05:02:40;1.90;;;1.20;;
691;SDS011;328;50.086;8.576;2022-11-04T05:05:09;4.83;;;1.63;;
691;SDS011;328;50.086;8.576;2022-11-04T05:07:39;1.57;;;0.60;;
691;SDS011;328;50.086;8.576;2022-11-04T05:10:08;1.77;;;1.40;;
691;SDS011;328;50.086;8.576;2022-11-04T05:12:38;1.27;;;1.17;;
691;SDS011;328;50.086;8.576;2022-11-04T05:15:24;2.60;;;1.33;;
691;SDS011;328;50.086;8.576;2022-11-04T05:17:55;1.77;;;1.00;;
691;SDS011;328;50.086;8.576;2022-11-04T05:20:23;3.67;;;1.00;;
691;SDS011;328;50.086;8.576;2022-11-04T05:22:52;1.80;;;1.43;;
691;SDS011;328;50.086;8.576;2022-11-04T05:25:20;1.60;;;1.10;;
691;SDS011;328;50.086;8.576;2022-11-04T05:27:47;1.47;;;1.07;;
691;SDS011;328;50.086;8.576;2022-11-04T05:30:15;2.33;;;1.20;;
691;SDS011;328;50.086;8.576;2022-11-04T05:32:42;2.67;;;1.13;;
691;SDS011;328;50.086;8.576;2022-11-04T05:35:10;2.83;;;1.20;;
691;SDS011;328;50.086;8.576;2022-11-04T05:37:37;1.10;;;1.00;;
691;SDS011;328;50.086;8.576;2022-11-04T05:40:07;6.57;;;1.63;;
691;SDS011;328;50.086;8.576;2022-11-04T05:42:35;3.50;;;1.53;;
691;SDS011;328;50.086;8.576;2022-11-04T05:45:03;3.67;;;1.83;;
691;SDS011;328;50.086;8.576;2022-11-04T05:47:31;3.20;;;1.43;;
691;SDS011;328;50.086;8.576;2022-11-04T05:49:59;1.67;;;1.10;;
691;SDS011;328;50.086;8.576;2022-11-04T05:52:26;2.40;;;1.40;;
691;SDS011;328;50.086;8.576;2022-11-04T05:54:54;3.53;;;1.73;;
691;SDS011;328;50.086;8.576;2022-11-04T05:57:23;2.40;;;1.40;;
691;SDS011;328;50.086;8.576;2022-11-04T05:59:50;3.50;;;1.57;;
691;SDS011;328;50.086;8.576;2022-11-04T06:02:18;2.07;;;1.70;;
691;SDS011;328;50.086;8.576;2022-11-04T06:04:45;1.80;;;1.70;;
691;SDS011;328;50.086;8.576;2022-11-04T06:07:13;1.77;;;1.63;;
691;SDS011;328;50.086;8.576;2022-11-04T06:09:40;6.87;;;2.10;;
691;SDS011;328;50.086;8.576;2022-11-04T06:12:09;3.10;;;2.03;;
691;SDS011;328;50.086;8.576;2022-11-04T06:14:41;3.10;;;2.80;;
691;SDS011;328;50.086;8.576;2022-11-04T06:17:09;4.73;;;2.10;;
691;SDS011;328;50.086;8.576;2022-11-04T06:19:38;3.83;;;2.07;;
691;SDS011;328;50.086;8.576;2022-11-04T06:22:07;4.30;;;1.60;;
691;SDS011;328;50.086;8.576;2022-11-04T06:24:34;2.90;;;1.73;;
691;SDS011;328;50.086;8.576;2022-11-04T06:27:02;3.10;;;1.40;;
691;SDS011;328;50.086;8.576;2022-11-04T06:29:30;2.10;;;1.60;;
691;SDS011;328;50.086;8.576;2022-11-04T06:31:59;3.23;;;1.50;;
691;SDS011;328;50.086;8.576;2022-11-04T06:34:26;4.30;;;1.67;;
691;SDS011;328;50.086;8.576;2022-11-04T06:36:54;2.67;;;1.30;;
691;SDS011;328;50.086;8.576;2022-11-04T06:39:21;3.43;;;1.33;;
691;SDS011;328;50.086;8.576;2022-11-04T06:41:49;7.57;;;1.77;;
691;SDS011;328;50.086;8.576;2022-11-04T06:44:18;3.00;;;1.90;;
691;SDS011;328;50.086;8.576;2022-11-04T06:46:45;2.80;;;2.10;;
691;SDS011;328;50.086;8.576;2022-11-04T06:49:15;1.50;;;1.30;;
691;SDS011;328;50.086;8.576;2022-11-04T06:51:43;2.87;;;1.53;;
691;SDS011;328;50.086;8.576;2022-11-04T06:54:11;5.93;;;2.23;;
691;SDS011;328;50.086;8.576;2022-11-04T06:56:40;2.90;;;2.10;;
691;SDS011;328;50.086;8.576;2022-11-04T06:59:08;2.03;;;1.40;;
691;SDS011;328;50.086;8.576;2022-11-04T07:01:36;4.60;;;2.00;;
691;SDS011;328;50.086;8.576;2022-11-04T07:04:04;4.60;;;1.77;;
691;SDS011;328;50.086;8.576;2022-11-04T07:06:33;7.53;;;2.27;;
691;SDS011;328;50.086;8.576;2022-11-04T07:09:06;3.83;;;2.10;;
691;SDS011;328;50.086;8.576;2022-11-04T07:11:33;5.60;;;2.33;;
691;SDS011;328;50.086;8.576;2022-11-04T07:14:01;5.23;;;1.60;;
691;SDS011;328;50.086;8.576;2022-11-04T07:16:28;5.50;;;2.30;;
691;SDS011;328;50.086;8.576;2022-11-04T07:18:56;3.37;;;2.00;;
691;SDS011;328;50.086;8.576;2022-11-04T07:21:24;3.00;;;2.23;;
691;SDS011;328;50.086;8.576;2022-11-04T07:23:53;4.57;;;2.30;;
691;SDS011;328;50.086;8.576;2022-11-04T07:26:20;2.80;;;2.50;;
691;SDS011;328;50.086;8.576;2022-11-04T07:28:48;10.23;;;4.57;;
691;SDS011;328;50.086;8.576;2022-11-04T07:31:15;12.63;;;5.37;;
691;SDS011;328;50.086;8.576;2022-11-04T07:33:43;7.57;;;4.53;;
691;SDS011;328;50.086;8.576;2022-11-04T07:36:15;8.10;;;4.37;;
691;SDS011;328;50.086;8.576;2022-11-04T07:38:43;12.33;;;3.97;;
691;SDS011;328;50.086;8.576;2022-11-04T07:41:12;10.43;;;4.30;;
691;SDS011;328;50.086;8.576;2022-11-04T07:43:40;4.20;;;2.63;;
691;SDS011;328;50.086;8.576;2022-11-04T07:46:08;7.13;;;2.43;;
691;SDS011;328;50.086;8.576;2022-11-04T07:48:37;3.43;;;2.27;;
691;SDS011;328;50.086;8.576;2022-11-04T07:51:05;4.50;;;2.30;;
691;SDS011;328;50.086;8.576;2022-11-04T07:53:34;3.30;;;2.40;;
691;SDS011;328;50.086;8.576;2022-11-04T07:56:02;3.23;;;1.97;;
691;SDS011;328;50.086;8.576;2022-11-04T07:58:32;10.47;;;2.03;;
691;SDS011;328;50.086;8.576;2022-11-04T08:01:00;4.40;;;1.80;;
691;SDS011;328;50.086;8.576;2022-11-04T08:03:29;6.47;;;1.83;;
691;SDS011;328;50.086;8.576;2022-11-04T08:05:56;4.23;;;1.73;;
691;SDS011;328;50.086;8.576;2022-11-04T08:08:25;1.90;;;1.63;;
691;SDS011;328;50.086;8.576;2022-11-04T08:10:53;3.77;;;2.33;;
691;SDS011;328;50.086;8.576;2022-11-04T08:13:22;8.17;;;2.30;;
691;SDS011;328;50.086;8.576;2022-11-04T08:15:51;4.83;;;2.40;;
691;SDS011;328;50.086;8.576;2022-11-04T08:18:19;2.77;;;1.70;;
691;SDS011;328;50.086;8.576;2022-11-04T08:20:47;2.30;;;1.77;;
691;SDS011;328;50.086;8.576;2022-11-04T08:23:15;9.40;;;2.57;;
691;SDS011;328;50.086;8.576;2022-11-04T08:25:43;2.60;;;1.50;;
691;SDS011;328;50.086;8.576;2022-11-04T08:28:10;2.63;;;1.67;;
691;SDS011;328;50.086;8.576;2022-11-04T08:30:52;2.00;;;1.50;;
691;SDS011;328;50.086;8.576;2022-11-04T08:33:20;3.47;;;1.60;;
691;SDS011;328;50.086;8.576;2022-11-04T08:35:48;2.40;;;2.10;;
691;SDS011;328;50.086;8.576;2022-11-04T08:38:16;6.13;;;1.80;;
691;SDS011;328;50.086;8.576;2022-11-04T08:40:44;4.03;;;1.70;;
691;SDS011;328;50.086;8.576;2022-11-04T08:43:12;3.77;;;1.50;;
691;SDS011;328;50.086;8.576;2022-11-04T08:45:40;4.57;;;2.03;;
691;SDS011;328;50.086;8.576;2022-11-04T08:48:09;2.70;;;1.90;;
691;SDS011;328;50.086;8.576;2022-11-04T08:50:38;2.70;;;1.53;;
691;SDS011;328;50.086;8.576;2022-11-04T08:53:05;6.87;;;2.90;;
691;SDS011;328;50.086;8.576;2022-11-04T08:55:34;2.90;;;1.60;;
691;SDS011;328;50.086;8.576;2022-11-04T08:58:02;4.53;;;2.07;;
691;SDS011;328;50.086;8.576;2022-11-04T09:00:29;2.77;;;1.50;;
691;SDS011;328;50.086;8.576;2022-11-04T09:02:58;5.30;;;2.43;;
691;SDS011;328;50.086;8.576;2022-11-04T09:05:27;4.00;;;1.83;;
691;SDS011;328;50.086;8.576;2022-11-04T09:07:58;5.53;;;1.77;;
691;SDS011;328;50.086;8.576;2022-11-04T09:10:27;5.20;;;2.00;;
691;SDS011;328;50.086;8.576;2022-11-04T09:12:54;3.03;;;1.67;;
691;SDS011;328;50.086;8.576;2022-11-04T09:15:22;4.90;;;2.00;;
691;SDS011;328;50.086;8.576;2022-11-04T09:17:50;2.40;;;1.67;;
691;SDS011;328;50.086;8.576;2022-11-04T09:20:17;5.53;;;2.10;;
691;SDS011;328;50.086;8.576;2022-11-04T09:22:46;4.73;;;2.80;;
691;SDS011;328;50.086;8.576;2022-11-04T09:25:15;6.37;;;2.63;;
691;SDS011;328;50.086;8.576;2022-11-04T09:27:43;7.63;;;2.37;;
691;SDS011;328;50.086;8.576;2022-11-04T09:30:11;4.13;;;1.70;;
691;SDS011;328;50.086;8.576;2022-11-04T09:32:39;2.30;;;1.87;;
691;SDS011;328;50.086;8.576;2022-11-04T09:35:07;2.83;;;1.60;;
691;SDS011;328;50.086;8.576;2022-11-04T09:37:35;4.57;;;1.73;;
691;SDS011;328;50.086;8.576;2022-11-04T09:40:05;5.23;;;1.40;;
691;SDS011;328;50.086;8.576;2022-11-04T09:42:38;2.87;;;1.80;;
691;SDS011;328;50.086;8.576;2022-11-04T09:45:14;2.60;;;1.73;;
691;SDS011;328;50.086;8.576;2022-11-04T09:47:48;3.17;;;1.97;;
691;SDS011;328;50.086;8.576;2022-11-04T09:50:18;2.17;;;1.50;;
691;SDS011;328;50.086;8.576;2022-11-04T09:52:50;5.83;;;1.80;;
691;SDS011;328;50.086;8.576;2022-11-04T09:55:23;4.57;;;2.20;;
691;SDS011;328;50.086;8.576;2022-11-04T09:57:53;4.33;;;2.17;;
691;SDS011;328;50.086;8.576;2022-11-04T10:00:23;9.43;;;2.90;;
691;SDS011;328;50.086;8.576;2022-11-04T10:02:54;4.23;;;2.30;;
691;SDS011;328;50.086;8.576;2022-11-04T10:05:30;2.37;;;1.47;;
691;SDS011;328;50.086;8.576;2022-11-04T10:08:07;4.27;;;1.90;;
691;SDS011;328;50.086;8.576;2022-11-04T10:10:55;5.27;;;2.03;;
691;SDS011;328;50.086;8.576;2022-11-04T10:13:27;4.43;;;2.07;;
691;SDS011;328;50.086;8.576;2022-11-04T10:16:02;6.93;;;2.53;;
691;SDS011;328;50.086;8.576;2022-11-04T10:18:41;3.10;;;1.33;;
691;SDS011;328;50.086;8.576;2022-11-04T10:21:19;3.77;;;1.60;;
691;SDS011;328;50.086;8.576;2022-11-04T10:23:54;3.97;;;2.03;;
691;SDS011;328;50.086;8.576;2022-11-04T10:26:34;2.53;;;1.17;;
691;SDS011;328;50.086;8.576;2022-11-04T10:29:16;3.93;;;1.30;;
691;SDS011;328;50.086;8.576;2022-11-04T10:32:02;3.23;;;1.53;;
691;SDS011;328;50.086;8.576;2022-11-04T10:34:34;3.43;;;1.30;;
691;SDS011;328;50.086;8.576;2022-11-04T10:37:22;3.60;;;1.20;;
691;SDS011;328;50.086;8.576;2022-11-04T10:40:22;4.00;;;1.23;;
691;SDS011;328;50.086;8.576;2022-11-04T10:43:09;2.47;;;1.40;;
691;SDS011;328;50.086;8.576;2022-11-04T10:45:41;4.50;;;1.27;;
691;SDS011;328;50.086;8.576;2022-11-04T10:48:44;3.23;;;1.07;;
691;SDS011;328;50.086;8.576;2022-11-04T10:51:32;5.43;;;2.03;;
691;SDS011;328;50.086;8.576;2022-11-04T10:54:11;4.17;;;1.53;;
691;SDS011;328;50.086;8.576;2022-11-04T10:56:46;3.97;;;1.20;;
691;SDS011;328;50.086;8.576;2022-11-04T10:59:18;2.50;;;1.70;;
691;SDS011;328;50.086;8.576;2022-11-04T11:01:50;4.03;;;1.57;;
691;SDS011;328;50.086;8.576;2022-11-04T11:04:41;2.33;;;1.27;;
691;SDS011;328;50.086;8.576;2022-11-04T11:07:23;7.73;;;1.80;;
691;SDS011;328;50.086;8.576;2022-11-04T11:10:14;5.23;;;1.63;;
691;SDS011;328;50.086;8.576;2022-11-04T11:13:00;4.17;;;1.00;;
691;SDS011;328;50.086;8.576;2022-11-04T11:15:40;2.33;;;1.10;;
691;SDS011;328;50.086;8.576;2022-11-04T11:18:12;3.03;;;1.17;;
691;SDS011;328;50.086;8.576;2022-11-04T11:20:41;5.33;;;1.37;;
691;SDS011;328;50.086;8.576;2022-11-04T11:26:07;4.13;;;1.03;;
691;SDS011;328;50.086;8.576;2022-11-04T11:28:36;2.27;;;0.93;;
691;SDS011;328;50.086;8.576;2022-11-04T11:31:11;4.00;;;1.20;;
691;SDS011;328;50.086;8.576;2022-11-04T11:33:45;4.33;;;1.30;;
691;SDS011;328;50.086;8.576;2022-11-04T11:36:17;3.80;;;1.13;;
691;SDS011;328;50.086;8.576;2022-11-04T11:38:50;4.60;;;1.27;;
691;SDS011;328;50.086;8.576;2022-11-04T11:41:31;3.90;;;1.33;;
691;SDS011;328;50.086;8.576;2022-11-04T11:44:16;5.87;;;1.47;;
691;SDS011;328;50.086;8.576;2022-11-04T11:46:50;2.67;;;1.27;;
691;SDS011;328;50.086;8.576;2022-11-04T11:49:24;4.30;;;1.30;;
691;SDS011;328;50.086;8.576;2022-11-04T11:51:54;2.30;;;1.03;;
691;SDS011;328;50.086;8.576;2022-11-04T11:54:25;1.10;;;0.80;;
691;SDS011;328;50.086;8.576;2022-11-04T11:56:59;4.00;;;0.90;;
691;SDS011;328;50.086;8.576;2022-11-04T11:59:43;4.70;;;1.07;;
691;SDS011;328;50.086;8.576;2022-11-04T12:02:35;2.70;;;1.20;;
691;SDS011;328;50.086;8.576;2022-11-04T12:05:09;3.90;;;1.30;;
691;SDS011;328;50.086;8.576;2022-11-04T12:07:59;3.20;;;1.10;;
691;SDS011;328;50.086;8.576;2022-11-04T12:10:54;2.63;;;0.70;;
691;SDS011;328;50.086;8.576;2022-11-04T12:13:25;3.37;;;1.10;;
691;SDS011;328;50.086;8.576;2022-11-04T12:18:58;3.03;;;1.03;;
691;SDS011;328;50.086;8.576;2022-11-04T12:21:53;3.03;;;1.00;;
691;SDS011;328;50.086;8.576;2022-11-04T12:24:30;3.30;;;0.93;;
691;SDS011;328;50.086;8.576;2022-11-04T12:27:02;4.20;;;1.20;;
691;SDS011;328;50.086;8.576;2022-11-04T12:30:00;1.77;;;0.80;;
691;SDS011;328;50.086;8.576;2022-11-04T12:32:44;5.57;;;1.20;;
691;SDS011;328;50.086;8.576;2022-11-04T12:35:25;2.53;;;0.93;;
691;SDS011;328;50.086;8.576;2022-11-04T12:38:14;4.30;;;1.00;;
691;SDS011;328;50.086;8.576;2022-11-04T12:40:52;3.03;;;1.43;;
691;SDS011;328;50.086;8.576;2022-11-04T12:43:57;2.70;;;0.60;;
691;SDS011;328;50.086;8.576;2022-11-04T12:46:36;3.90;;;1.40;;
691;SDS011;328;50.086;8.576;2022-11-04T12:52:33;3.33;;;0.80;;
691;SDS011;328;50.086;8.576;2022-11-04T12:55:13;2.07;;;1.20;;
691;SDS011;328;50.086;8.576;2022-11-04T12:57:47;5.60;;;1.20;;
691;SDS011;328;50.086;8.576;2022-11-04T13:00:17;4.90;;;1.17;;
691;SDS011;328;50.086;8.576;2022-11-04T13:03:02;4.03;;;1.47;;
691;SDS011;328;50.086;8.576;2022-11-04T13:05:41;1.40;;;0.77;;
691;SDS011;328;50.086;8.576;2022-11-04T13:08:19;3.10;;;2.00;;
691;SDS011;328;50.086;8.576;2022-11-04T13:10:51;3.00;;;1.00;;
691;SDS011;328;50.086;8.576;2022-11-04T13:13:20;4.80;;;1.10;;
691;SDS011;328;50.086;8.576;2022-11-04T13:15:53;2.50;;;0.80;;
691;SDS011;328;50.086;8.576;2022-11-04T13:18:24;3.70;;;1.20;;
691;SDS011;328;50.086;8.576;2022-11-04T13:20:54;2.30;;;0.80;;
691;SDS011;328;50.086;8.576;2022-11-04T13:23:30;1.30;;;0.80;;
691;SDS011;328;50.086;8.576;2022-11-04T13:26:01;6.20;;;1.20;;
691;SDS011;328;50.086;8.576;2022-11-04T13:28:30;3.80;;;0.80;;
691;SDS011;328;50.086;8.576;2022-11-04T13:30:59;1.63;;;0.80;;
691;SDS011;328;50.086;8.576;2022-11-04T13:33:32;4.00;;;0.90;;
691;SDS011;328;50.086;8.576;2022-11-04T13:36:06;3.27;;;1.07;;
691;SDS011;328;50.086;8.576;2022-11-04T13:38:46;1.77;;;0.90;;
691;SDS011;328;50.086;8.576;2022-11-04T13:41:21;3.20;;;1.73;;
691;SDS011;328;50.086;8.576;2022-11-04T13:44:12;5.87;;;1.30;;
691;SDS011;328;50.086;8.576;2022-11-04T13:46:51;2.10;;;0.90;;
691;SDS011;328;50.086;8.576;2022-11-04T13:49:22;4.63;;;1.10;;
691;SDS011;328;50.086;8.576;2022-11-04T13:52:05;7.50;;;0.97;;
691;SDS011;328;50.086;8.576;2022-11-04T13:54:36;2.57;;;1.10;;
691;SDS011;328;50.086;8.576;2022-11-04T13:57:07;3.63;;;1.20;;
691;SDS011;328;50.086;8.576;2022-11-04T13:59:37;4.83;;;1.00;;
691;SDS011;328;50.086;8.576;2022-11-04T14:02:31;1.93;;;1.03;;
691;SDS011;328;50.086;8.576;2022-11-04T14:08:12;5.57;;;1.10;;
691;SDS011;328;50.086;8.576;2022-11-04T14:11:08;1.90;;;1.30;;
691;SDS011;328;50.086;8.576;2022-11-04T14:16:36;2.70;;;1.60;;
691;SDS011;328;50.086;8.576;2022-11-04T14:22:26;2.60;;;1.43;;
691;SDS011;328;50.086;8.576;2022-11-04T14:25:14;1.60;;;1.10;;
691;SDS011;328;50.086;8.576;2022-11-04T14:27:47;5.63;;;2.20;;
691;SDS011;328;50.086;8.576;2022-11-04T14:30:33;4.67;;;1.03;;
691;SDS011;328;50.086;8.576;2022-11-04T14:36:22;1.80;;;1.50;;
691;SDS011;328;50.086;8.576;2022-11-04T14:38:57;3.57;;;1.10;;
691;SDS011;328;50.086;8.576;2022-11-04T14:41:32;2.80;;;1.00;;
691;SDS011;328;50.086;8.576;2022-11-04T14:44:20;4.37;;;1.20;;
691;SDS011;328;50.086;8.576;2022-11-04T14:46:53;8.63;;;1.10;;
691;SDS011;328;50.086;8.576;2022-11-04T14:49:29;2.93;;;1.20;;
691;SDS011;328;50.086;8.576;2022-11-04T14:52:03;1.37;;;0.70;;
691;SDS011;328;50.086;8.576;2022-11-04T14:54:32;6.90;;;1.80;;
691;SDS011;328;50.086;8.576;2022-11-04T14:57:08;3.13;;;0.83;;
691;SDS011;328;50.086;8.576;2022-11-04T14:59:41;2.83;;;1.37;;
691;SDS011;328;50.086;8.576;2022-11-04T15:02:11;2.80;;;1.20;;
691;SDS011;328;50.086;8.576;2022-11-04T15:04:46;7.27;;;1.67;;
691;SDS011;328;50.086;8.576;2022-11-04T15:07:24;1.73;;;1.03;;
691;SDS011;328;50.086;8.576;2022-11-04T15:09:59;4.20;;;1.13;;
691;SDS011;328;50.086;8.576;2022-11-04T15:12:29;9.87;;;2.03;;
691;SDS011;328;50.086;8.576;2022-11-04T15:18:18;3.73;;;1.57;;
691;SDS011;328;50.086;8.576;2022-11-04T15:21:02;2.43;;;1.23;;
691;SDS011;328;50.086;8.576;2022-11-04T15:23:36;3.20;;;1.40;;
691;SDS011;328;50.086;8.576;2022-11-04T15:26:06;2.77;;;1.60;;
691;SDS011;328;50.086;8.576;2022-11-04T15:28:46;1.87;;;1.10;;
691;SDS011;328;50.086;8.576;2022-11-04T15:31:20;2.20;;;1.60;;
691;SDS011;328;50.086;8.576;2022-11-04T15:33:57;1.50;;;1.13;;
691;SDS011;328;50.086;8.576;2022-11-04T15:36:28;2.20;;;1.03;;
691;SDS011;328;50.086;8.576;2022-11-04T15:38:58;2.23;;;1.10;;
691;SDS011;328;50.086;8.576;2022-11-04T15:41:30;2.70;;;1.93;;
691;SDS011;328;50.086;8.576;2022-11-04T15:44:16;5.90;;;1.13;;
691;SDS011;328;50.086;8.576;2022-11-04T15:46:50;1.97;;;1.17;;
691;SDS011;328;50.086;8.576;2022-11-04T15:49:26;4.70;;;1.30;;
691;SDS011;328;50.086;8.576;2022-11-04T15:52:13;3.23;;;2.03;;
691;SDS011;328;50.086;8.576;2022-11-04T15:54:43;4.17;;;1.63;;
691;SDS011;328;50.086;8.576;2022-11-04T15:57:13;2.13;;;1.30;;
691;SDS011;328;50.086;8.576;2022-11-04T15:59:44;6.40;;;1.33;;
691;SDS011;328;50.086;8.576;2022-11-04T16:02:19;1.87;;;1.63;;
691;SDS011;328;50.086;8.576;2022-11-04T16:05:03;2.50;;;1.40;;
691;SDS011;328;50.086;8.576;2022-11-04T16:07:34;5.63;;;1.80;;
691;SDS011;328;50.086;8.576;2022-11-04T16:12:51;2.10;;;1.40;;
691;SDS011;328;50.086;8.576;2022-11-04T16:15:30;1.90;;;1.10;;
691;SDS011;328;50.086;8.576;2022-11-04T16:18:00;2.13;;;1.10;;
691;SDS011;328;50.086;8.576;2022-11-04T16:20:30;2.70;;;1.00;;
691;SDS011;328;50.086;8.576;2022-11-04T16:23:01;3.00;;;1.20;;
691;SDS011;328;50.086;8.576;2022-11-04T16:25:30;5.83;;;1.57;;
691;SDS011;328;50.086;8.576;2022-11-04T16:28:06;3.10;;;1.30;;
691;SDS011;328;50.086;8.576;2022-11-04T16:30:54;3.27;;;2.03;;
691;SDS011;328;50.086;8.576;2022-11-04T16:33:25;2.97;;;1.23;;
691;SDS011;328;50.086;8.576;2022-11-04T16:35:55;3.50;;;2.20;;
691;SDS011;328;50.086;8.576;2022-11-04T16:38:25;2.03;;;1.10;;
691;SDS011;328;50.086;8.576;2022-11-04T16:40:55;1.67;;;1.17;;
691;SDS011;328;50.086;8.576;2022-11-04T16:43:23;2.60;;;1.20;;
691;SDS011;328;50.086;8.576;2022-11-04T16:45:50;5.40;;;1.40;;
691;SDS011;328;50.086;8.576;2022-11-04T16:48:19;2.60;;;1.93;;
691;SDS011;328;50.086;8.576;2022-11-04T16:50:50;5.57;;;2.00;;